Time;durP1;ratioP1;P1;durP2;ratioP2;P2;SDS_P1;SDS_P2;PMS_P1;PMS_P2;Temp;Humidity;BMP_temperature;BMP_pressure;BME280_temperature;BME280_humidity;BME280_pressure;Samples;Min_cycle;Max_cycle;Signal;HPM_P1;HPM_P2
2021/08/15 00:00:07;;;;;;;5.30;2.45;;;;;;;;;;4925460;29;20677;-84
2021/08/15 00:02:35;;;;;;;2.47;2.28;;;;;;;;;;4925911;29;20297;-84
2021/08/15 00:05:03;;;;;;;3.00;2.65;;;;;;;;;;4925874;29;20230;-84
2021/08/15 00:07:32;;;;;;;3.60;3.30;;;;;;;;;;4925740;29;20295;-84
2021/08/15 00:09:59;;;;;;;3.45;3.15;;;;;;;;;;4924378;29;20191;-84
2021/08/15 00:12:27;;;;;;;4.88;3.20;;;;;;;;;;4921614;29;20230;-84
2021/08/15 00:14:54;;;;;;;3.88;3.33;;;;;;;;;;4922846;29;20752;-82
2021/08/15 00:17:22;;;;;;;2.97;2.50;;;;;;;;;;4923689;29;20187;-84
2021/08/15 00:19:49;;;;;;;4.30;3.40;;;;;;;;;;4923777;29;20195;-84
2021/08/15 00:22:16;;;;;;;3.78;3.42;;;;;;;;;;4923567;29;20190;-84
2021/08/15 00:24:46;;;;;;;3.78;3.40;;;;;;;;;;4922979;29;20218;-84
2021/08/15 00:27:14;;;;;;;3.17;2.58;;;;;;;;;;4922953;29;20262;-84
2021/08/15 00:29:41;;;;;;;4.70;3.78;;;;;;;;;;4922876;29;20581;-84
2021/08/15 00:32:09;;;;;;;3.17;2.65;;;;;;;;;;4922188;29;20211;-84
2021/08/15 00:34:36;;;;;;;3.63;2.95;;;;;;;;;;4921557;29;20240;-82
2021/08/15 00:37:04;;;;;;;5.03;3.30;;;;;;;;;;4922224;29;20210;-83
2021/08/15 00:39:32;;;;;;;4.68;3.13;;;;;;;;;;4922596;29;20246;-84
2021/08/15 00:42:01;;;;;;;2.92;2.67;;;;;;;;;;4922887;29;20214;-83
2021/08/15 00:44:28;;;;;;;3.90;2.95;;;;;;;;;;4922451;29;20230;-84
2021/08/15 00:46:57;;;;;;;3.08;2.45;;;;;;;;;;4921748;29;20210;-83
2021/08/15 00:49:24;;;;;;;3.78;3.28;;;;;;;;;;4921807;29;20692;-83
2021/08/15 00:51:52;;;;;;;3.42;2.72;;;;;;;;;;4921902;29;20234;-83
2021/08/15 00:54:20;;;;;;;4.85;4.13;;;;;;;;;;4922551;29;20233;-83
2021/08/15 00:56:50;;;;;;;2.88;2.60;;;;;;;;;;4922717;29;20222;-83
2021/08/15 00:59:20;;;;;;;2.85;2.53;;;;;;;;;;4923125;29;20209;-83
2021/08/15 01:01:48;;;;;;;2.92;2.65;;;;;;;;;;4923201;29;20187;-83
2021/08/15 01:04:16;;;;;;;2.15;1.95;;;;;;;;;;4922544;29;20223;-84
2021/08/15 01:06:44;;;;;;;2.65;2.45;;;;;;;;;;4922391;29;20206;-83
2021/08/15 01:09:11;;;;;;;2.28;2.08;;;;;;;;;;4923642;29;20674;-84
2021/08/15 01:11:39;;;;;;;2.40;2.20;;;;;;;;;;4921197;29;20233;-84
2021/08/15 01:14:08;;;;;;;2.67;2.25;;;;;;;;;;4923070;29;20237;-84
2021/08/15 01:16:37;;;;;;;2.10;1.90;;;;;;;;;;4922922;29;20213;-83
2021/08/15 01:19:05;;;;;;;3.17;1.90;;;;;;;;;;4922683;29;20218;-83
2021/08/15 01:21:32;;;;;;;2.65;2.45;;;;;;;;;;4922345;29;20226;-84
2021/08/15 01:24:00;;;;;;;4.38;2.75;;;;;;;;;;4922068;29;20226;-82
2021/08/15 01:26:28;;;;;;;3.10;2.55;;;;;;;;;;4922155;29;20214;-83
2021/08/15 01:28:57;;;;;;;2.17;1.95;;;;;;;;;;4922287;29;20206;-82
2021/08/15 01:31:26;;;;;;;4.68;2.40;;;;;;;;;;4922225;29;20236;-84
2021/08/15 01:33:53;;;;;;;3.90;2.75;;;;;;;;;;4922069;29;20234;-84
2021/08/15 01:36:22;;;;;;;2.50;2.30;;;;;;;;;;4922730;29;20207;-83
2021/08/15 01:38:51;;;;;;;2.53;2.25;;;;;;;;;;4922292;29;20191;-84
2021/08/15 01:41:19;;;;;;;3.40;2.72;;;;;;;;;;4921527;29;20206;-83
2021/08/15 01:43:50;;;;;;;4.70;2.67;;;;;;;;;;4922225;29;20201;-84
2021/08/15 01:46:19;;;;;;;3.70;2.40;;;;;;;;;;4921864;29;20612;-83
2021/08/15 01:48:47;;;;;;;2.88;2.30;;;;;;;;;;4922283;29;20577;-82
2021/08/15 01:51:15;;;;;;;2.38;2.17;;;;;;;;;;4921398;29;20207;-84
2021/08/15 01:53:44;;;;;;;2.33;2.13;;;;;;;;;;4921435;29;20234;-83
2021/08/15 01:56:11;;;;;;;4.25;2.40;;;;;;;;;;4921630;29;20670;-84
2021/08/15 01:58:39;;;;;;;3.38;3.08;;;;;;;;;;4921510;29;20551;-83
2021/08/15 02:01:07;;;;;;;2.58;2.30;;;;;;;;;;4921481;29;20191;-84
2021/08/15 02:03:37;;;;;;;2.45;2.10;;;;;;;;;;4920843;29;20202;-84
2021/08/15 02:06:05;;;;;;;2.22;2.03;;;;;;;;;;4922061;29;20211;-82
2021/08/15 02:08:33;;;;;;;2.67;2.25;;;;;;;;;;4920534;29;20197;-84
2021/08/15 02:11:00;;;;;;;3.03;2.38;;;;;;;;;;4921320;29;20213;-84
2021/08/15 02:13:27;;;;;;;2.60;2.30;;;;;;;;;;4922279;29;20214;-84
2021/08/15 02:15:55;;;;;;;3.13;2.85;;;;;;;;;;4921555;29;20234;-83
2021/08/15 02:18:22;;;;;;;3.22;2.92;;;;;;;;;;4921251;29;20211;-84
2021/08/15 02:20:51;;;;;;;5.18;2.75;;;;;;;;;;4922531;29;20193;-84
2021/08/15 02:23:19;;;;;;;4.47;3.53;;;;;;;;;;4922155;29;20193;-83
2021/08/15 02:25:46;;;;;;;3.08;2.60;;;;;;;;;;4921670;29;20230;-83
2021/08/15 02:28:14;;;;;;;2.90;2.40;;;;;;;;;;4921255;29;20213;-84
2021/08/15 02:30:41;;;;;;;2.80;2.45;;;;;;;;;;4921300;29;20210;-84
2021/08/15 02:33:08;;;;;;;2.25;2.05;;;;;;;;;;4920951;29;20259;-84
2021/08/15 02:35:36;;;;;;;2.50;2.30;;;;;;;;;;4920441;29;20252;-84
2021/08/15 02:38:05;;;;;;;3.47;2.17;;;;;;;;;;4920018;29;20710;-84
2021/08/15 02:40:32;;;;;;;2.65;2.08;;;;;;;;;;4920712;29;20190;-84
2021/08/15 02:43:00;;;;;;;2.72;2.33;;;;;;;;;;4921048;29;20190;-84
2021/08/15 02:45:28;;;;;;;3.40;2.78;;;;;;;;;;4920660;29;20264;-84
2021/08/15 02:47:55;;;;;;;2.30;2.20;;;;;;;;;;4920172;29;20741;-83
2021/08/15 02:50:23;;;;;;;2.45;2.25;;;;;;;;;;4919876;29;20646;-84
2021/08/15 02:52:51;;;;;;;3.25;2.58;;;;;;;;;;4920758;29;20240;-84
2021/08/15 02:55:20;;;;;;;3.28;2.22;;;;;;;;;;4920632;29;20598;-83
2021/08/15 02:57:47;;;;;;;3.20;2.78;;;;;;;;;;4921041;29;20249;-84
2021/08/15 03:00:15;;;;;;;3.05;2.33;;;;;;;;;;4920841;29;20209;-84
2021/08/15 03:02:43;;;;;;;3.75;2.83;;;;;;;;;;4921758;29;20206;-83
2021/08/15 03:05:12;;;;;;;2.40;2.20;;;;;;;;;;4921089;29;20222;-83
2021/08/15 03:07:39;;;;;;;2.70;2.50;;;;;;;;;;4921154;29;20193;-84
2021/08/15 03:10:09;;;;;;;2.17;1.90;;;;;;;;;;4920652;29;20565;-83
2021/08/15 03:12:38;;;;;;;3.60;2.20;;;;;;;;;;4919428;29;20222;-83
2021/08/15 03:15:07;;;;;;;2.45;2.20;;;;;;;;;;4921223;29;20223;-84
2021/08/15 03:17:35;;;;;;;3.30;2.55;;;;;;;;;;4922848;29;20191;-84
2021/08/15 03:20:02;;;;;;;2.13;2.00;;;;;;;;;;4922938;29;20190;-83
2021/08/15 03:22:30;;;;;;;1.83;1.63;;;;;;;;;;4922228;29;20209;-83
2021/08/15 03:24:59;;;;;;;2.53;2.33;;;;;;;;;;4922641;29;20237;-84
2021/08/15 03:27:26;;;;;;;2.30;2.10;;;;;;;;;;4924122;29;20191;-84
2021/08/15 03:29:55;;;;;;;3.75;2.25;;;;;;;;;;4922649;29;20582;-83
2021/08/15 03:32:22;;;;;;;3.35;2.45;;;;;;;;;;4923713;29;20214;-84
2021/08/15 03:34:50;;;;;;;2.33;2.10;;;;;;;;;;4923666;29;20245;-83
2021/08/15 03:37:18;;;;;;;2.40;2.20;;;;;;;;;;4923766;29;20564;-83
2021/08/15 03:39:45;;;;;;;3.30;2.63;;;;;;;;;;4923311;29;20218;-83
2021/08/15 03:42:13;;;;;;;2.10;1.90;;;;;;;;;;4923447;29;20202;-84
2021/08/15 03:44:40;;;;;;;2.30;2.10;;;;;;;;;;4922867;29;20227;-83
2021/08/15 03:47:09;;;;;;;2.10;2.00;;;;;;;;;;4923211;29;20584;-83
2021/08/15 03:49:37;;;;;;;2.20;2.00;;;;;;;;;;4922237;29;20680;-84
2021/08/15 03:52:05;;;;;;;2.47;2.28;;;;;;;;;;4922561;29;20186;-82
2021/08/15 03:54:32;;;;;;;1.80;1.70;;;;;;;;;;4922876;29;20238;-84
2021/08/15 03:57:01;;;;;;;1.92;1.80;;;;;;;;;;4923815;29;20215;-83
2021/08/15 03:59:28;;;;;;;3.80;2.47;;;;;;;;;;4923529;29;20210;-82
2021/08/15 04:01:55;;;;;;;2.28;2.08;;;;;;;;;;4923630;29;20195;-82
2021/08/15 04:04:24;;;;;;;2.90;1.98;;;;;;;;;;4923198;29;20230;-83
2021/08/15 04:06:52;;;;;;;2.22;2.03;;;;;;;;;;4923226;29;20206;-82
2021/08/15 04:09:19;;;;;;;1.80;1.67;;;;;;;;;;4923023;29;20202;-84
2021/08/15 04:11:47;;;;;;;1.75;1.65;;;;;;;;;;4922222;29;20220;-84
2021/08/15 04:14:14;;;;;;;2.33;1.98;;;;;;;;;;4922036;29;20237;-82
2021/08/15 04:16:42;;;;;;;2.45;2.10;;;;;;;;;;4922247;29;20203;-84
2021/08/15 04:19:09;;;;;;;3.10;2.83;;;;;;;;;;4922401;29;20206;-84
2021/08/15 04:21:38;;;;;;;2.78;2.03;;;;;;;;;;4922524;29;20189;-83
2021/08/15 04:24:05;;;;;;;2.50;2.30;;;;;;;;;;4922468;29;20226;-84
2021/08/15 04:26:33;;;;;;;2.30;2.10;;;;;;;;;;4921256;29;20212;-83
2021/08/15 04:29:00;;;;;;;2.13;1.90;;;;;;;;;;4922202;29;20190;-84
2021/08/15 04:31:28;;;;;;;2.50;2.30;;;;;;;;;;4922248;29;20201;-84
2021/08/15 04:33:55;;;;;;;1.60;1.50;;;;;;;;;;4922971;29;20242;-84
2021/08/15 04:36:22;;;;;;;1.80;1.70;;;;;;;;;;4923359;29;20206;-84
2021/08/15 04:38:51;;;;;;;3.13;2.55;;;;;;;;;;4922535;29;20187;-84
2021/08/15 04:41:19;;;;;;;2.55;2.35;;;;;;;;;;4922638;29;20187;-82
2021/08/15 04:43:46;;;;;;;2.47;2.22;;;;;;;;;;4922972;29;20187;-84
2021/08/15 04:46:14;;;;;;;2.22;2.03;;;;;;;;;;4922455;29;20210;-84
2021/08/15 04:48:41;;;;;;;2.13;1.70;;;;;;;;;;4923929;29;20228;-83
2021/08/15 04:51:09;;;;;;;1.90;1.77;;;;;;;;;;4923678;29;20197;-82
2021/08/15 04:53:37;;;;;;;1.80;1.70;;;;;;;;;;4922476;29;20226;-84
2021/08/15 04:56:05;;;;;;;2.35;2.15;;;;;;;;;;4923500;29;20202;-84
2021/08/15 04:58:35;;;;;;;2.83;2.15;;;;;;;;;;4922318;29;20221;-82
2021/08/15 05:01:02;;;;;;;2.65;2.10;;;;;;;;;;4922287;29;20202;-84
2021/08/15 05:03:30;;;;;;;3.35;2.63;;;;;;;;;;4922560;29;20191;-84
2021/08/15 05:05:58;;;;;;;2.75;2.38;;;;;;;;;;4922581;29;20206;-84
2021/08/15 05:08:25;;;;;;;2.38;2.17;;;;;;;;;;4922092;29;20206;-84
2021/08/15 05:10:53;;;;;;;2.35;2.15;;;;;;;;;;4922409;29;20213;-84
2021/08/15 05:13:22;;;;;;;3.95;2.58;;;;;;;;;;4921751;29;20199;-83
2021/08/15 05:15:49;;;;;;;3.25;2.25;;;;;;;;;;4921965;29;20219;-83
2021/08/15 05:18:17;;;;;;;2.58;2.33;;;;;;;;;;4922232;29;20212;-83
2021/08/15 05:20:44;;;;;;;2.83;2.13;;;;;;;;;;4922503;29;20194;-83
2021/08/15 05:23:12;;;;;;;3.97;3.05;;;;;;;;;;4921492;29;20206;-83
2021/08/15 05:25:40;;;;;;;3.10;2.80;;;;;;;;;;4920993;29;20632;-83
2021/08/15 05:28:08;;;;;;;3.72;3.20;;;;;;;;;;4921111;29;20191;-83
2021/08/15 05:30:37;;;;;;;3.33;2.80;;;;;;;;;;4921503;29;20591;-84
2021/08/15 05:33:05;;;;;;;2.40;2.08;;;;;;;;;;4921232;29;20206;-83
2021/08/15 05:35:32;;;;;;;2.22;2.13;;;;;;;;;;4920546;29;20612;-83
2021/08/15 05:38:00;;;;;;;3.30;3.00;;;;;;;;;;4921549;29;20212;-83
2021/08/15 05:40:27;;;;;;;2.42;2.28;;;;;;;;;;4921051;29;20211;-84
2021/08/15 05:42:55;;;;;;;2.20;2.00;;;;;;;;;;4920861;29;20295;-84
2021/08/15 05:45:22;;;;;;;2.35;2.13;;;;;;;;;;4921358;29;20226;-85
2021/08/15 05:47:51;;;;;;;1.90;1.80;;;;;;;;;;4921084;29;20269;-82
2021/08/15 05:50:18;;;;;;;2.47;2.13;;;;;;;;;;4920663;29;20286;-83
2021/08/15 05:52:46;;;;;;;3.13;2.30;;;;;;;;;;4920552;29;20190;-83
2021/08/15 05:55:13;;;;;;;4.03;2.25;;;;;;;;;;4919724;29;20230;-84
2021/08/15 05:57:41;;;;;;;4.75;3.63;;;;;;;;;;4915462;29;20556;-87
2021/08/15 06:00:10;;;;;;;3.47;2.88;;;;;;;;;;4917490;29;20217;-84
2021/08/15 06:02:37;;;;;;;3.53;3.22;;;;;;;;;;4919182;29;20214;-83
2021/08/15 06:05:11;;;;;;;2.60;2.40;;;;;;;;;;4919682;29;20300;-84
2021/08/15 06:07:38;;;;;;;4.18;2.67;;;;;;;;;;4919302;29;20199;-84
2021/08/15 06:10:07;;;;;;;3.15;2.85;;;;;;;;;;4918153;29;20217;-83
2021/08/15 06:12:36;;;;;;;3.50;3.20;;;;;;;;;;4918822;29;20206;-83
2021/08/15 06:15:05;;;;;;;2.67;2.47;;;;;;;;;;4901183;29;20612;-83
2021/08/15 06:17:32;;;;;;;4.20;2.78;;;;;;;;;;4901050;29;20234;-83
2021/08/15 06:20:00;;;;;;;3.58;2.83;;;;;;;;;;4916471;29;20209;-83
2021/08/15 06:22:29;;;;;;;3.55;3.25;;;;;;;;;;4919655;29;20669;-83
2021/08/15 06:24:56;;;;;;;3.85;3.42;;;;;;;;;;4919104;29;20609;-83
2021/08/15 06:27:23;;;;;;;4.38;3.38;;;;;;;;;;4919234;29;20186;-83
2021/08/15 06:29:51;;;;;;;4.18;3.35;;;;;;;;;;4918652;29;20203;-83
2021/08/15 06:32:18;;;;;;;3.92;3.30;;;;;;;;;;4919841;29;20191;-83
2021/08/15 06:34:46;;;;;;;4.68;3.50;;;;;;;;;;4926883;29;20237;-83
2021/08/15 06:37:13;;;;;;;3.75;3.45;;;;;;;;;;4938108;29;20201;-83
2021/08/15 06:39:42;;;;;;;3.58;3.28;;;;;;;;;;4924340;29;20193;-82
2021/08/15 06:42:10;;;;;;;4.65;3.42;;;;;;;;;;4919497;29;20198;-83
2021/08/15 06:44:37;;;;;;;3.45;3.15;;;;;;;;;;4919710;29;20253;-84
2021/08/15 06:47:06;;;;;;;5.07;4.25;;;;;;;;;;4919596;29;20187;-84
2021/08/15 06:49:33;;;;;;;6.63;3.50;;;;;;;;;;4933644;29;20572;-83
2021/08/15 06:52:01;;;;;;;4.85;3.40;;;;;;;;;;4941177;29;20653;-83
2021/08/15 06:54:29;;;;;;;6.10;4.10;;;;;;;;;;4940751;29;20229;-84
2021/08/15 06:56:58;;;;;;;4.43;4.00;;;;;;;;;;4940786;29;20209;-83
2021/08/15 06:59:25;;;;;;;4.03;3.55;;;;;;;;;;4929608;29;20194;-83
2021/08/15 07:01:53;;;;;;;8.25;4.50;;;;;;;;;;4922234;29;20206;-83
2021/08/15 07:04:20;;;;;;;5.60;3.85;;;;;;;;;;4922165;29;20230;-83
2021/08/15 07:06:48;;;;;;;4.22;3.80;;;;;;;;;;4923108;29;20195;-83
2021/08/15 07:09:15;;;;;;;4.88;3.78;;;;;;;;;;4932950;29;20210;-83
2021/08/15 07:11:43;;;;;;;4.93;3.47;;;;;;;;;;4941678;29;20208;-84
2021/08/15 07:14:12;;;;;;;4.30;3.20;;;;;;;;;;4940847;29;20313;-84
2021/08/15 07:16:39;;;;;;;2.90;2.60;;;;;;;;;;4941685;29;20233;-84
2021/08/15 07:19:07;;;;;;;4.22;3.00;;;;;;;;;;4922616;29;20287;-84
2021/08/15 07:21:34;;;;;;;6.10;4.57;;;;;;;;;;4903869;29;20207;-84
2021/08/15 07:24:02;;;;;;;6.07;4.45;;;;;;;;;;4903182;29;20238;-84
2021/08/15 07:26:29;;;;;;;5.43;4.65;;;;;;;;;;4903185;29;20646;-84
2021/08/15 07:28:57;;;;;;;5.75;4.05;;;;;;;;;;4911236;29;20199;-83
2021/08/15 07:31:25;;;;;;;5.82;4.47;;;;;;;;;;4922103;29;20210;-84
2021/08/15 07:33:53;;;;;;;4.00;3.60;;;;;;;;;;4921568;29;20234;-84
2021/08/15 07:36:20;;;;;;;4.07;3.40;;;;;;;;;;4921957;29;20253;-84
2021/08/15 07:38:48;;;;;;;4.53;3.63;;;;;;;;;;4921852;29;20197;-83
2021/08/15 07:41:15;;;;;;;4.88;3.60;;;;;;;;;;4922118;29;20213;-84
2021/08/15 07:43:43;;;;;;;4.82;4.13;;;;;;;;;;4922437;29;20190;-85
2021/08/15 07:46:13;;;;;;;7.55;4.15;;;;;;;;;;4922493;29;20187;-85
2021/08/15 07:48:42;;;;;;;5.68;3.83;;;;;;;;;;4916056;29;20734;-84
2021/08/15 07:51:10;;;;;;;4.40;3.70;;;;;;;;;;4902717;29;20195;-83
2021/08/15 07:53:38;;;;;;;5.80;4.25;;;;;;;;;;4900951;29;20229;-84
2021/08/15 07:56:06;;;;;;;5.38;4.25;;;;;;;;;;4900544;29;20212;-84
2021/08/15 07:58:35;;;;;;;4.55;3.50;;;;;;;;;;4899823;29;20195;-85
2021/08/15 08:01:03;;;;;;;3.55;3.25;;;;;;;;;;4899039;29;20239;-84
2021/08/15 08:03:31;;;;;;;4.18;3.20;;;;;;;;;;4899957;29;20222;-85
2021/08/15 08:06:00;;;;;;;3.70;2.97;;;;;;;;;;4900051;29;20196;-83
2021/08/15 08:08:28;;;;;;;3.58;3.20;;;;;;;;;;4903979;29;20269;-83
2021/08/15 08:10:55;;;;;;;3.85;3.55;;;;;;;;;;4919237;29;20207;-85
2021/08/15 08:13:27;;;;;;;5.72;3.42;;;;;;;;;;4922162;29;20201;-85
2021/08/15 08:15:54;;;;;;;4.60;3.85;;;;;;;;;;4920508;29;20222;-85
2021/08/15 08:18:23;;;;;;;3.60;2.95;;;;;;;;;;4921111;29;20191;-85
2021/08/15 08:20:51;;;;;;;3.88;3.03;;;;;;;;;;4922092;29;20201;-86
2021/08/15 08:23:20;;;;;;;2.83;2.63;;;;;;;;;;4922221;29;20303;-85
2021/08/15 08:25:48;;;;;;;3.75;2.50;;;;;;;;;;4920907;29;20705;-85
2021/08/15 08:28:16;;;;;;;5.00;4.07;;;;;;;;;;4921460;29;20684;-85
2021/08/15 08:30:54;;;;;;;3.38;2.97;;;;;;;;;;4921472;29;20198;-86
2021/08/15 08:33:22;;;;;;;3.85;2.92;;;;;;;;;;4920934;29;20250;-85
2021/08/15 08:35:50;;;;;;;4.10;3.47;;;;;;;;;;4920429;29;20602;-86
2021/08/15 08:38:21;;;;;;;4.90;3.42;;;;;;;;;;4919515;29;20203;-86
2021/08/15 08:40:52;;;;;;;3.65;3.35;;;;;;;;;;4919801;29;20229;-87
2021/08/15 08:43:21;;;;;;;4.10;3.72;;;;;;;;;;4920180;29;20187;-85
2021/08/15 08:45:51;;;;;;;4.25;3.42;;;;;;;;;;4919612;29;20222;-86
2021/08/15 08:48:19;;;;;;;2.78;2.55;;;;;;;;;;4919867;29;20210;-87
2021/08/15 08:50:52;;;;;;;3.38;2.70;;;;;;;;;;4919896;29;20214;-86
2021/08/15 08:53:21;;;;;;;2.90;2.60;;;;;;;;;;4918195;29;20619;-86
2021/08/15 08:55:49;;;;;;;3.10;2.75;;;;;;;;;;4918543;29;20222;-86
2021/08/15 08:58:16;;;;;;;4.95;3.70;;;;;;;;;;4919074;29;20293;-87
2021/08/15 09:00:46;;;;;;;2.70;2.50;;;;;;;;;;4919510;29;20201;-86
2021/08/15 09:03:15;;;;;;;2.97;2.78;;;;;;;;;;4920094;29;20197;-86
2021/08/15 09:05:52;;;;;;;6.10;4.03;;;;;;;;;;4920027;29;20230;-86
2021/08/15 09:08:31;;;;;;;3.60;2.88;;;;;;;;;;4918630;29;20187;-86
2021/08/15 09:11:13;;;;;;;3.65;2.78;;;;;;;;;;4919035;29;20210;-86
2021/08/15 09:13:41;;;;;;;2.88;2.67;;;;;;;;;;4918289;29;20314;-87
2021/08/15 09:16:08;;;;;;;3.53;2.53;;;;;;;;;;4918580;29;20230;-87
2021/08/15 09:18:36;;;;;;;2.47;2.20;;;;;;;;;;4918608;29;20199;-87
2021/08/15 09:21:04;;;;;;;2.55;2.33;;;;;;;;;;4917683;29;20193;-86
2021/08/15 09:23:35;;;;;;;3.60;2.67;;;;;;;;;;4918427;29;20186;-87
2021/08/15 09:26:14;;;;;;;2.92;2.65;;;;;;;;;;4918176;29;20213;-86
2021/08/15 09:28:43;;;;;;;2.75;2.55;;;;;;;;;;4918165;29;20213;-86
2021/08/15 09:31:25;;;;;;;2.33;2.20;;;;;;;;;;4899499;29;20195;-87
2021/08/15 09:33:57;;;;;;;3.05;2.10;;;;;;;;;;4900894;29;20354;-86
2021/08/15 09:36:30;;;;;;;2.35;2.15;;;;;;;;;;4906539;29;20215;-85
2021/08/15 09:39:02;;;;;;;2.83;1.80;;;;;;;;;;4913116;29;20213;-85
2021/08/15 09:41:33;;;;;;;2.75;2.55;;;;;;;;;;4919523;29;20700;-86
2021/08/15 09:44:22;;;;;;;2.60;2.40;;;;;;;;;;4920080;29;20598;-85
2021/08/15 09:47:08;;;;;;;2.85;2.65;;;;;;;;;;4919860;29;20198;-85
2021/08/15 09:49:41;;;;;;;2.47;1.95;;;;;;;;;;4919466;29;20213;-86
2021/08/15 09:52:11;;;;;;;2.20;1.80;;;;;;;;;;4920060;29;20194;-86
2021/08/15 09:54:40;;;;;;;2.67;2.45;;;;;;;;;;4918389;29;20229;-86
2021/08/15 09:57:10;;;;;;;2.80;2.60;;;;;;;;;;4915789;29;20577;-85
2021/08/15 09:59:40;;;;;;;2.08;1.95;;;;;;;;;;4904478;29;20290;-88
2021/08/15 10:02:08;;;;;;;1.90;1.80;;;;;;;;;;4912812;29;20222;-84
2021/08/15 10:04:35;;;;;;;1.77;1.67;;;;;;;;;;4918704;29;20226;-85
2021/08/15 10:07:03;;;;;;;2.28;2.08;;;;;;;;;;4917491;29;20202;-85
2021/08/15 10:09:31;;;;;;;2.60;2.40;;;;;;;;;;4916121;29;20281;-87
2021/08/15 10:12:01;;;;;;;2.72;2.53;;;;;;;;;;4917025;29;20198;-88
2021/08/15 10:14:30;;;;;;;2.75;2.38;;;;;;;;;;4916740;29;20237;-87
2021/08/15 10:17:00;;;;;;;3.97;2.75;;;;;;;;;;4911943;29;20294;-85
2021/08/15 10:19:35;;;;;;;3.45;2.47;;;;;;;;;;4900148;29;20230;-84
2021/08/15 10:22:03;;;;;;;2.17;1.92;;;;;;;;;;4898746;29;20194;-84
2021/08/15 10:24:46;;;;;;;2.38;2.17;;;;;;;;;;4898471;29;20665;-84
2021/08/15 10:27:49;;;;;;;3.78;2.30;;;;;;;;;;4899139;29;20234;-84
2021/08/15 10:30:51;;;;;;;3.00;2.80;;;;;;;;;;4859237;29;20204;-84
2021/08/15 10:33:28;;;;;;;2.40;2.20;;;;;;;;;;4859428;29;20611;-84
2021/08/15 10:36:25;;;;;;;2.53;2.05;;;;;;;;;;4888275;29;20600;-85
2021/08/15 10:38:56;;;;;;;3.08;2.53;;;;;;;;;;4907556;29;20211;-85
2021/08/15 10:41:53;;;;;;;2.38;2.17;;;;;;;;;;4898989;29;20191;-84
2021/08/15 10:44:23;;;;;;;2.60;2.00;;;;;;;;;;4898537;29;20231;-84
2021/08/15 10:47:17;;;;;;;3.88;2.30;;;;;;;;;;4898933;29;20209;-84
2021/08/15 10:50:04;;;;;;;2.25;2.05;;;;;;;;;;4879173;29;20206;-83
2021/08/15 10:52:38;;;;;;;3.13;2.15;;;;;;;;;;4917558;29;20201;-85
2021/08/15 10:55:15;;;;;;;5.03;2.65;;;;;;;;;;4916886;29;20222;-85
2021/08/15 10:57:55;;;;;;;2.45;2.25;;;;;;;;;;4916685;29;20639;-85
2021/08/15 11:00:48;;;;;;;3.78;2.28;;;;;;;;;;4917917;29;20190;-85
2021/08/15 11:03:55;;;;;;;2.80;2.25;;;;;;;;;;4917363;29;20692;-84
2021/08/15 11:06:45;;;;;;;2.55;2.35;;;;;;;;;;4917981;29;20186;-84
2021/08/15 11:09:13;;;;;;;2.83;2.58;;;;;;;;;;4917451;29;20217;-84
2021/08/15 11:12:10;;;;;;;2.60;2.20;;;;;;;;;;4917415;29;20189;-85
2021/08/15 11:15:08;;;;;;;3.15;2.50;;;;;;;;;;4916714;29;20337;-84
2021/08/15 11:17:39;;;;;;;3.50;2.30;;;;;;;;;;4902104;29;20234;-85
2021/08/15 11:20:33;;;;;;;1.77;1.67;;;;;;;;;;4917415;29;20241;-84
2021/08/15 11:23:15;;;;;;;2.50;1.65;;;;;;;;;;4917296;29;20193;-84
2021/08/15 11:25:44;;;;;;;2.42;2.03;;;;;;;;;;4916810;29;20316;-84
2021/08/15 11:28:12;;;;;;;2.22;2.03;;;;;;;;;;4916051;29;20572;-84
2021/08/15 11:30:40;;;;;;;2.38;2.17;;;;;;;;;;4916367;29;20195;-84
2021/08/15 11:33:11;;;;;;;2.05;1.95;;;;;;;;;;4916543;29;20547;-84
2021/08/15 11:35:50;;;;;;;1.95;1.75;;;;;;;;;;4917746;29;20768;-84
2021/08/15 11:38:39;;;;;;;1.70;1.60;;;;;;;;;;4919823;29;20233;-84
2021/08/15 11:41:26;;;;;;;1.75;1.65;;;;;;;;;;4920179;29;20801;-85
2021/08/15 11:43:56;;;;;;;2.25;1.90;;;;;;;;;;4900961;29;20207;-83
2021/08/15 11:46:23;;;;;;;2.60;2.00;;;;;;;;;;4919917;29;20198;-84
2021/08/15 11:48:56;;;;;;;2.05;1.90;;;;;;;;;;4920532;29;20189;-83
2021/08/15 11:51:23;;;;;;;1.60;1.50;;;;;;;;;;4920685;29;20210;-84
2021/08/15 11:53:51;;;;;;;2.15;1.83;;;;;;;;;;4920648;29;20191;-83
2021/08/15 11:56:21;;;;;;;2.00;1.90;;;;;;;;;;4921054;29;20250;-83
2021/08/15 11:58:50;;;;;;;1.63;1.52;;;;;;;;;;4920923;29;20210;-83
2021/08/15 12:01:20;;;;;;;1.85;1.75;;;;;;;;;;4920613;29;20221;-84
2021/08/15 12:04:02;;;;;;;1.70;1.60;;;;;;;;;;4920810;29;20187;-83
2021/08/15 12:06:31;;;;;;;1.20;1.20;;;;;;;;;;4921364;29;20725;-82
2021/08/15 12:08:59;;;;;;;1.13;1.08;;;;;;;;;;4913267;29;20205;-83
2021/08/15 12:11:28;;;;;;;1.40;1.30;;;;;;;;;;4920782;29;20245;-84
2021/08/15 12:14:09;;;;;;;1.73;1.60;;;;;;;;;;4920849;29;20313;-84
2021/08/15 12:16:39;;;;;;;1.20;1.20;;;;;;;;;;4921196;29;20194;-84
2021/08/15 12:19:08;;;;;;;2.40;2.20;;;;;;;;;;4920111;29;20217;-84
2021/08/15 12:21:37;;;;;;;1.60;1.50;;;;;;;;;;4902647;29;20195;-85
2021/08/15 12:24:13;;;;;;;2.00;1.90;;;;;;;;;;4900836;29;20250;-85
2021/08/15 12:26:44;;;;;;;1.85;1.75;;;;;;;;;;4901355;29;20318;-83
2021/08/15 12:29:21;;;;;;;1.77;1.67;;;;;;;;;;4910914;29;20627;-84
2021/08/15 12:32:12;;;;;;;2.25;1.90;;;;;;;;;;4919262;29;20190;-84
2021/08/15 12:34:46;;;;;;;1.50;1.40;;;;;;;;;;4924994;29;20242;-84
2021/08/15 12:37:17;;;;;;;2.00;1.80;;;;;;;;;;4938439;29;20205;-85
2021/08/15 12:39:47;;;;;;;1.52;1.45;;;;;;;;;;4937570;29;20253;-84
2021/08/15 12:42:21;;;;;;;1.73;1.63;;;;;;;;;;4922924;29;20236;-82
2021/08/15 12:44:55;;;;;;;1.75;1.65;;;;;;;;;;4919341;29;20230;-84
2021/08/15 12:47:32;;;;;;;2.00;1.80;;;;;;;;;;4919293;29;20209;-86
2021/08/15 12:50:14;;;;;;;1.55;1.45;;;;;;;;;;4934226;29;20197;-84
2021/08/15 12:52:45;;;;;;;1.75;1.65;;;;;;;;;;4936034;29;20659;-85
2021/08/15 12:55:23;;;;;;;1.80;1.70;;;;;;;;;;4918942;29;20707;-84
2021/08/15 12:57:58;;;;;;;1.60;1.50;;;;;;;;;;4919052;29;20201;-84
2021/08/15 13:00:29;;;;;;;2.85;2.00;;;;;;;;;;4900060;29;20199;-84
2021/08/15 13:02:58;;;;;;;1.83;1.73;;;;;;;;;;4917568;29;20631;-84
2021/08/15 13:05:29;;;;;;;2.15;1.63;;;;;;;;;;4918267;29;20594;-85
2021/08/15 13:07:57;;;;;;;1.88;1.77;;;;;;;;;;4918380;29;20205;-84
2021/08/15 13:10:26;;;;;;;1.80;1.70;;;;;;;;;;4899189;29;20207;-84
2021/08/15 13:12:54;;;;;;;1.80;1.70;;;;;;;;;;4900273;29;20188;-84
2021/08/15 13:15:22;;;;;;;1.90;1.80;;;;;;;;;;4899307;29;20583;-83
2021/08/15 13:17:50;;;;;;;1.98;1.88;;;;;;;;;;4906342;29;20191;-84
2021/08/15 13:20:21;;;;;;;1.85;1.75;;;;;;;;;;4937169;29;20198;-84
2021/08/15 13:22:51;;;;;;;2.10;1.90;;;;;;;;;;4937825;29;20190;-83
2021/08/15 13:25:20;;;;;;;1.50;1.40;;;;;;;;;;4937038;29;20304;-84
2021/08/15 13:27:48;;;;;;;1.65;1.55;;;;;;;;;;4931656;29;20202;-83
2021/08/15 13:30:17;;;;;;;2.08;1.77;;;;;;;;;;4936510;29;20193;-84
2021/08/15 13:32:45;;;;;;;1.90;1.80;;;;;;;;;;4936833;29;20205;-84
2021/08/15 13:35:13;;;;;;;2.15;1.98;;;;;;;;;;4935990;29;20730;-85
2021/08/15 13:37:41;;;;;;;2.83;1.70;;;;;;;;;;4937338;29;20276;-84
2021/08/15 13:40:11;;;;;;;1.95;1.85;;;;;;;;;;4920014;29;20206;-83
2021/08/15 13:42:41;;;;;;;1.50;1.40;;;;;;;;;;4916410;29;20182;-85
2021/08/15 13:45:11;;;;;;;1.70;1.60;;;;;;;;;;4898690;29;20226;-84
2021/08/15 13:47:42;;;;;;;1.80;1.52;;;;;;;;;;4898321;29;20669;-85
2021/08/15 13:50:11;;;;;;;2.13;1.92;;;;;;;;;;4898827;29;20234;-85
2021/08/15 13:52:38;;;;;;;2.83;2.10;;;;;;;;;;4898078;29;20211;-85
2021/08/15 13:55:07;;;;;;;1.88;1.75;;;;;;;;;;4916259;29;20218;-84
2021/08/15 13:57:36;;;;;;;2.45;1.90;;;;;;;;;;4897189;29;20211;-86
2021/08/15 14:00:05;;;;;;;1.90;1.80;;;;;;;;;;4913145;29;20244;-85
2021/08/15 14:02:33;;;;;;;1.67;1.58;;;;;;;;;;4916292;29;20702;-85
2021/08/15 14:05:00;;;;;;;2.28;1.75;;;;;;;;;;4917044;29;20238;-84
2021/08/15 14:07:28;;;;;;;1.58;1.48;;;;;;;;;;4916220;29;20266;-84
2021/08/15 14:09:56;;;;;;;1.50;1.40;;;;;;;;;;4916970;29;20600;-85
2021/08/15 14:12:24;;;;;;;1.60;1.50;;;;;;;;;;4917575;29;20250;-84
2021/08/15 14:14:52;;;;;;;1.70;1.30;;;;;;;;;;4916109;29;20226;-84
2021/08/15 14:17:20;;;;;;;1.45;1.35;;;;;;;;;;4916563;29;20203;-84
2021/08/15 14:19:47;;;;;;;1.50;1.40;;;;;;;;;;4932345;29;20308;-84
2021/08/15 14:22:15;;;;;;;1.40;1.30;;;;;;;;;;4937055;29;20206;-84
2021/08/15 14:24:42;;;;;;;1.80;1.70;;;;;;;;;;4937918;29;20241;-83
2021/08/15 14:27:10;;;;;;;1.40;1.30;;;;;;;;;;4900066;29;20622;-84
2021/08/15 14:29:37;;;;;;;1.17;1.13;;;;;;;;;;4925988;29;20200;-83
2021/08/15 14:32:07;;;;;;;1.70;1.60;;;;;;;;;;4936641;29;20185;-84
2021/08/15 14:34:35;;;;;;;1.40;1.30;;;;;;;;;;4930572;29;20229;-84
2021/08/15 14:37:02;;;;;;;1.10;1.10;;;;;;;;;;4917111;29;20210;-85
2021/08/15 14:39:30;;;;;;;1.70;1.60;;;;;;;;;;4929459;29;20213;-84
2021/08/15 14:41:57;;;;;;;1.15;1.10;;;;;;;;;;4936803;29;20209;-84
2021/08/15 14:44:25;;;;;;;1.35;1.15;;;;;;;;;;4935265;29;20809;-84
2021/08/15 14:46:52;;;;;;;1.27;1.20;;;;;;;;;;4935630;29;20212;-84
2021/08/15 14:49:21;;;;;;;1.45;1.35;;;;;;;;;;4924507;29;20670;-85
2021/08/15 14:51:49;;;;;;;1.38;1.30;;;;;;;;;;4916638;29;20218;-84
2021/08/15 14:54:16;;;;;;;1.23;1.23;;;;;;;;;;4917149;29;20227;-83
2021/08/15 14:56:44;;;;;;;1.38;1.17;;;;;;;;;;4917813;29;20206;-84
2021/08/15 14:59:11;;;;;;;0.75;0.75;;;;;;;;;;4908632;29;20238;-84